sensor_id;sensor_type;location;lat;lon;timestamp;P1;durP1;ratioP1;P2;durP2;ratioP2
41077;SDS011;26823;42.662;23.352;2024-01-15T00:00:38;54.50;;;25.23;;
41077;SDS011;26823;42.662;23.352;2024-01-15T00:03:04;49.30;;;23.90;;
41077;SDS011;26823;42.662;23.352;2024-01-15T00:05:29;48.55;;;23.60;;
41077;SDS011;26823;42.662;23.352;2024-01-15T00:07:55;56.60;;;24.95;;
41077;SDS011;26823;42.662;23.352;2024-01-15T00:10:20;55.05;;;24.63;;
41077;SDS011;26823;42.662;23.352;2024-01-15T00:12:46;50.70;;;24.05;;
41077;SDS011;26823;42.662;23.352;2024-01-15T00:15:11;45.88;;;24.42;;
41077;SDS011;26823;42.662;23.352;2024-01-15T00:17:37;50.05;;;22.90;;
41077;SDS011;26823;42.662;23.352;2024-01-15T00:20:02;50.60;;;22.10;;
41077;SDS011;26823;42.662;23.352;2024-01-15T00:22:28;54.67;;;23.10;;
41077;SDS011;26823;42.662;23.352;2024-01-15T00:24:54;41.88;;;22.85;;
41077;SDS011;26823;42.662;23.352;2024-01-15T00:27:20;46.35;;;23.33;;
41077;SDS011;26823;42.662;23.352;2024-01-15T00:29:45;55.03;;;25.08;;
41077;SDS011;26823;42.662;23.352;2024-01-15T00:32:11;54.60;;;23.70;;
41077;SDS011;26823;42.662;23.352;2024-01-15T00:34:36;48.75;;;23.95;;
41077;SDS011;26823;42.662;23.352;2024-01-15T00:37:02;49.72;;;23.42;;
41077;SDS011;26823;42.662;23.352;2024-01-15T00:39:28;48.83;;;23.00;;
41077;SDS011;26823;42.662;23.352;2024-01-15T00:41:53;56.38;;;23.42;;
41077;SDS011;26823;42.662;23.352;2024-01-15T00:44:18;56.08;;;23.95;;
41077;SDS011;26823;42.662;23.352;2024-01-15T00:46:44;53.47;;;24.50;;
41077;SDS011;26823;42.662;23.352;2024-01-15T00:49:11;58.45;;;23.83;;
41077;SDS011;26823;42.662;23.352;2024-01-15T00:51:37;47.85;;;22.67;;
41077;SDS011;26823;42.662;23.352;2024-01-15T00:54:02;54.50;;;24.08;;
41077;SDS011;26823;42.662;23.352;2024-01-15T00:56:28;47.15;;;23.10;;
41077;SDS011;26823;42.662;23.352;2024-01-15T00:58:53;48.78;;;23.08;;
41077;SDS011;26823;42.662;23.352;2024-01-15T01:01:19;51.30;;;22.92;;
41077;SDS011;26823;42.662;23.352;2024-01-15T01:03:44;46.15;;;23.10;;
41077;SDS011;26823;42.662;23.352;2024-01-15T01:06:09;52.30;;;23.27;;
41077;SDS011;26823;42.662;23.352;2024-01-15T01:08:35;47.30;;;23.25;;
41077;SDS011;26823;42.662;23.352;2024-01-15T01:11:00;46.85;;;22.75;;
41077;SDS011;26823;42.662;23.352;2024-01-15T01:13:26;45.17;;;21.70;;
41077;SDS011;26823;42.662;23.352;2024-01-15T01:15:51;52.53;;;21.83;;
41077;SDS011;26823;42.662;23.352;2024-01-15T01:18:16;48.72;;;23.33;;
41077;SDS011;26823;42.662;23.352;2024-01-15T01:20:42;45.13;;;21.35;;
41077;SDS011;26823;42.662;23.352;2024-01-15T01:23:07;46.78;;;22.20;;
41077;SDS011;26823;42.662;23.352;2024-01-15T01:25:33;47.45;;;21.55;;
41077;SDS011;26823;42.662;23.352;2024-01-15T01:27:58;50.60;;;22.48;;
41077;SDS011;26823;42.662;23.352;2024-01-15T01:30:24;45.60;;;22.05;;
41077;SDS011;26823;42.662;23.352;2024-01-15T01:32:49;41.67;;;21.50;;
41077;SDS011;26823;42.662;23.352;2024-01-15T01:35:14;50.40;;;23.17;;
41077;SDS011;26823;42.662;23.352;2024-01-15T01:37:40;53.42;;;24.00;;
41077;SDS011;26823;42.662;23.352;2024-01-15T01:40:05;49.13;;;23.05;;
41077;SDS011;26823;42.662;23.352;2024-01-15T01:42:31;53.22;;;24.05;;
41077;SDS011;26823;42.662;23.352;2024-01-15T01:44:57;48.03;;;22.63;;
41077;SDS011;26823;42.662;23.352;2024-01-15T01:47:22;45.30;;;22.15;;
41077;SDS011;26823;42.662;23.352;2024-01-15T01:49:48;48.53;;;23.30;;
41077;SDS011;26823;42.662;23.352;2024-01-15T01:52:13;42.50;;;21.33;;
41077;SDS011;26823;42.662;23.352;2024-01-15T01:54:39;43.58;;;22.63;;
41077;SDS011;26823;42.662;23.352;2024-01-15T01:57:05;44.38;;;21.65;;
41077;SDS011;26823;42.662;23.352;2024-01-15T01:59:31;44.85;;;22.08;;
41077;SDS011;26823;42.662;23.352;2024-01-15T02:01:59;44.72;;;22.40;;
41077;SDS011;26823;42.662;23.352;2024-01-15T02:04:27;49.10;;;22.33;;
41077;SDS011;26823;42.662;23.352;2024-01-15T02:06:53;37.42;;;20.48;;
41077;SDS011;26823;42.662;23.352;2024-01-15T02:09:18;39.83;;;20.85;;
41077;SDS011;26823;42.662;23.352;2024-01-15T02:11:46;43.35;;;20.55;;
41077;SDS011;26823;42.662;23.352;2024-01-15T02:14:14;45.00;;;22.63;;
41077;SDS011;26823;42.662;23.352;2024-01-15T02:16:40;49.50;;;21.83;;
41077;SDS011;26823;42.662;23.352;2024-01-15T02:19:05;45.17;;;21.00;;
41077;SDS011;26823;42.662;23.352;2024-01-15T02:21:31;44.78;;;22.35;;
41077;SDS011;26823;42.662;23.352;2024-01-15T02:23:57;51.67;;;21.55;;
41077;SDS011;26823;42.662;23.352;2024-01-15T02:26:23;49.97;;;20.95;;
41077;SDS011;26823;42.662;23.352;2024-01-15T02:28:49;39.92;;;20.92;;
41077;SDS011;26823;42.662;23.352;2024-01-15T02:31:16;39.70;;;20.48;;
41077;SDS011;26823;42.662;23.352;2024-01-15T02:33:42;31.20;;;16.88;;
41077;SDS011;26823;42.662;23.352;2024-01-15T02:36:07;35.05;;;15.70;;
41077;SDS011;26823;42.662;23.352;2024-01-15T02:38:33;44.30;;;19.48;;
41077;SDS011;26823;42.662;23.352;2024-01-15T02:40:59;40.08;;;19.48;;
41077;SDS011;26823;42.662;23.352;2024-01-15T02:43:24;33.72;;;17.55;;
41077;SDS011;26823;42.662;23.352;2024-01-15T02:45:49;35.47;;;18.10;;
41077;SDS011;26823;42.662;23.352;2024-01-15T02:48:15;42.30;;;18.42;;
41077;SDS011;26823;42.662;23.352;2024-01-15T02:50:40;38.95;;;17.60;;
41077;SDS011;26823;42.662;23.352;2024-01-15T02:53:06;38.83;;;17.52;;
41077;SDS011;26823;42.662;23.352;2024-01-15T02:55:31;33.97;;;18.48;;
41077;SDS011;26823;42.662;23.352;2024-01-15T02:57:57;37.08;;;18.23;;
41077;SDS011;26823;42.662;23.352;2024-01-15T03:00:22;40.40;;;18.65;;
41077;SDS011;26823;42.662;23.352;2024-01-15T03:02:49;38.08;;;19.42;;
41077;SDS011;26823;42.662;23.352;2024-01-15T03:05:15;44.58;;;22.13;;
41077;SDS011;26823;42.662;23.352;2024-01-15T03:07:41;42.00;;;21.83;;
41077;SDS011;26823;42.662;23.352;2024-01-15T03:10:07;41.03;;;20.83;;
41077;SDS011;26823;42.662;23.352;2024-01-15T03:12:32;45.47;;;21.35;;
41077;SDS011;26823;42.662;23.352;2024-01-15T03:14:58;47.38;;;21.45;;
41077;SDS011;26823;42.662;23.352;2024-01-15T03:17:23;42.80;;;19.95;;
41077;SDS011;26823;42.662;23.352;2024-01-15T03:19:49;44.03;;;21.23;;
41077;SDS011;26823;42.662;23.352;2024-01-15T03:22:15;41.42;;;20.92;;
41077;SDS011;26823;42.662;23.352;2024-01-15T03:24:41;43.22;;;21.25;;
41077;SDS011;26823;42.662;23.352;2024-01-15T03:27:06;44.22;;;21.10;;
41077;SDS011;26823;42.662;23.352;2024-01-15T03:29:32;54.38;;;23.73;;
41077;SDS011;26823;42.662;23.352;2024-01-15T03:31:58;49.40;;;25.23;;
41077;SDS011;26823;42.662;23.352;2024-01-15T03:34:23;58.72;;;25.05;;
41077;SDS011;26823;42.662;23.352;2024-01-15T03:36:49;54.58;;;24.25;;
41077;SDS011;26823;42.662;23.352;2024-01-15T03:39:14;43.90;;;22.88;;
41077;SDS011;26823;42.662;23.352;2024-01-15T03:41:40;43.97;;;22.90;;
41077;SDS011;26823;42.662;23.352;2024-01-15T03:44:05;52.97;;;22.80;;
41077;SDS011;26823;42.662;23.352;2024-01-15T03:46:30;55.55;;;25.83;;
41077;SDS011;26823;42.662;23.352;2024-01-15T03:48:56;45.03;;;23.38;;
41077;SDS011;26823;42.662;23.352;2024-01-15T03:51:22;48.15;;;21.73;;
41077;SDS011;26823;42.662;23.352;2024-01-15T03:53:48;45.70;;;22.33;;
41077;SDS011;26823;42.662;23.352;2024-01-15T03:56:13;45.30;;;23.08;;
41077;SDS011;26823;42.662;23.352;2024-01-15T03:58:39;49.92;;;22.13;;
41077;SDS011;26823;42.662;23.352;2024-01-15T04:01:07;50.75;;;22.63;;
41077;SDS011;26823;42.662;23.352;2024-01-15T04:03:34;52.88;;;22.33;;
41077;SDS011;26823;42.662;23.352;2024-01-15T04:05:59;54.17;;;23.92;;
41077;SDS011;26823;42.662;23.352;2024-01-15T04:08:25;55.78;;;24.33;;
41077;SDS011;26823;42.662;23.352;2024-01-15T04:10:50;46.80;;;23.08;;
41077;SDS011;26823;42.662;23.352;2024-01-15T04:13:15;44.58;;;22.40;;
41077;SDS011;26823;42.662;23.352;2024-01-15T04:15:41;46.65;;;23.15;;
41077;SDS011;26823;42.662;23.352;2024-01-15T04:18:06;46.33;;;21.63;;
41077;SDS011;26823;42.662;23.352;2024-01-15T04:20:32;44.92;;;24.60;;
41077;SDS011;26823;42.662;23.352;2024-01-15T04:22:57;49.53;;;21.83;;
41077;SDS011;26823;42.662;23.352;2024-01-15T04:25:22;52.70;;;23.35;;
41077;SDS011;26823;42.662;23.352;2024-01-15T04:27:48;44.95;;;21.27;;
41077;SDS011;26823;42.662;23.352;2024-01-15T04:30:13;49.72;;;23.88;;
41077;SDS011;26823;42.662;23.352;2024-01-15T04:32:39;45.47;;;22.63;;
41077;SDS011;26823;42.662;23.352;2024-01-15T04:35:04;46.13;;;22.05;;
41077;SDS011;26823;42.662;23.352;2024-01-15T04:37:29;48.83;;;23.55;;
41077;SDS011;26823;42.662;23.352;2024-01-15T04:39:55;44.35;;;22.17;;
41077;SDS011;26823;42.662;23.352;2024-01-15T04:42:22;44.15;;;22.45;;
41077;SDS011;26823;42.662;23.352;2024-01-15T04:44:48;53.67;;;23.65;;
41077;SDS011;26823;42.662;23.352;2024-01-15T04:47:13;46.25;;;21.77;;
41077;SDS011;26823;42.662;23.352;2024-01-15T04:49:39;42.92;;;23.17;;
41077;SDS011;26823;42.662;23.352;2024-01-15T04:52:04;47.83;;;22.35;;
41077;SDS011;26823;42.662;23.352;2024-01-15T04:54:30;42.63;;;21.70;;
41077;SDS011;26823;42.662;23.352;2024-01-15T04:56:55;44.85;;;22.50;;
41077;SDS011;26823;42.662;23.352;2024-01-15T04:59:21;52.30;;;22.45;;
41077;SDS011;26823;42.662;23.352;2024-01-15T05:01:46;47.72;;;22.20;;
41077;SDS011;26823;42.662;23.352;2024-01-15T05:04:12;47.58;;;22.20;;
41077;SDS011;26823;42.662;23.352;2024-01-15T05:06:38;44.10;;;22.00;;
41077;SDS011;26823;42.662;23.352;2024-01-15T05:09:03;46.47;;;22.50;;
41077;SDS011;26823;42.662;23.352;2024-01-15T05:11:29;54.38;;;23.73;;
41077;SDS011;26823;42.662;23.352;2024-01-15T05:13:55;50.75;;;23.15;;
41077;SDS011;26823;42.662;23.352;2024-01-15T05:16:20;47.42;;;22.80;;
41077;SDS011;26823;42.662;23.352;2024-01-15T05:18:46;43.92;;;22.38;;
41077;SDS011;26823;42.662;23.352;2024-01-15T05:21:11;47.67;;;23.55;;
41077;SDS011;26823;42.662;23.352;2024-01-15T05:23:37;46.13;;;21.70;;
41077;SDS011;26823;42.662;23.352;2024-01-15T05:26:03;44.40;;;21.10;;
41077;SDS011;26823;42.662;23.352;2024-01-15T05:28:28;43.72;;;20.83;;
41077;SDS011;26823;42.662;23.352;2024-01-15T05:30:54;44.15;;;22.08;;
41077;SDS011;26823;42.662;23.352;2024-01-15T05:33:20;54.83;;;25.67;;
41077;SDS011;26823;42.662;23.352;2024-01-15T05:35:47;44.70;;;22.40;;
41077;SDS011;26823;42.662;23.352;2024-01-15T05:38:12;47.03;;;21.27;;
41077;SDS011;26823;42.662;23.352;2024-01-15T05:40:38;51.65;;;22.25;;
41077;SDS011;26823;42.662;23.352;2024-01-15T05:43:03;46.67;;;22.67;;
41077;SDS011;26823;42.662;23.352;2024-01-15T05:45:29;55.60;;;24.63;;
41077;SDS011;26823;42.662;23.352;2024-01-15T05:47:55;46.30;;;22.15;;
41077;SDS011;26823;42.662;23.352;2024-01-15T05:50:21;55.80;;;23.92;;
41077;SDS011;26823;42.662;23.352;2024-01-15T05:52:47;54.05;;;26.35;;
41077;SDS011;26823;42.662;23.352;2024-01-15T05:55:13;49.15;;;25.25;;
41077;SDS011;26823;42.662;23.352;2024-01-15T05:57:38;49.33;;;24.13;;
41077;SDS011;26823;42.662;23.352;2024-01-15T06:00:04;57.58;;;26.23;;
41077;SDS011;26823;42.662;23.352;2024-01-15T06:02:30;50.83;;;25.58;;
41077;SDS011;26823;42.662;23.352;2024-01-15T06:04:55;57.65;;;25.98;;
41077;SDS011;26823;42.662;23.352;2024-01-15T06:07:22;59.42;;;24.75;;
41077;SDS011;26823;42.662;23.352;2024-01-15T06:09:47;51.28;;;24.38;;
41077;SDS011;26823;42.662;23.352;2024-01-15T06:12:13;53.45;;;27.23;;
41077;SDS011;26823;42.662;23.352;2024-01-15T06:14:38;55.78;;;28.35;;
41077;SDS011;26823;42.662;23.352;2024-01-15T06:17:04;63.13;;;27.70;;
41077;SDS011;26823;42.662;23.352;2024-01-15T06:19:29;57.83;;;29.77;;
41077;SDS011;26823;42.662;23.352;2024-01-15T06:21:55;62.70;;;29.20;;
41077;SDS011;26823;42.662;23.352;2024-01-15T06:24:20;69.20;;;30.10;;
41077;SDS011;26823;42.662;23.352;2024-01-15T06:26:48;62.22;;;29.23;;
41077;SDS011;26823;42.662;23.352;2024-01-15T06:29:14;65.13;;;30.92;;
41077;SDS011;26823;42.662;23.352;2024-01-15T06:31:39;60.25;;;29.38;;
41077;SDS011;26823;42.662;23.352;2024-01-15T06:34:04;63.35;;;31.92;;
41077;SDS011;26823;42.662;23.352;2024-01-15T06:36:30;62.28;;;32.20;;
41077;SDS011;26823;42.662;23.352;2024-01-15T06:38:55;64.57;;;31.00;;
41077;SDS011;26823;42.662;23.352;2024-01-15T06:41:21;68.47;;;33.28;;
41077;SDS011;26823;42.662;23.352;2024-01-15T06:43:46;68.50;;;33.78;;
41077;SDS011;26823;42.662;23.352;2024-01-15T06:46:12;66.72;;;31.92;;
41077;SDS011;26823;42.662;23.352;2024-01-15T06:48:38;69.38;;;32.67;;
41077;SDS011;26823;42.662;23.352;2024-01-15T06:51:03;66.72;;;31.45;;
41077;SDS011;26823;42.662;23.352;2024-01-15T06:53:29;73.35;;;33.88;;
41077;SDS011;26823;42.662;23.352;2024-01-15T06:55:54;71.68;;;34.67;;
41077;SDS011;26823;42.662;23.352;2024-01-15T06:58:19;78.72;;;36.70;;
41077;SDS011;26823;42.662;23.352;2024-01-15T07:00:45;74.60;;;34.88;;
41077;SDS011;26823;42.662;23.352;2024-01-15T07:03:10;74.25;;;38.60;;
41077;SDS011;26823;42.662;23.352;2024-01-15T07:05:36;76.80;;;36.95;;
41077;SDS011;26823;42.662;23.352;2024-01-15T07:08:07;81.13;;;40.20;;
41077;SDS011;26823;42.662;23.352;2024-01-15T07:10:33;80.40;;;39.65;;
41077;SDS011;26823;42.662;23.352;2024-01-15T07:12:58;80.13;;;39.72;;
41077;SDS011;26823;42.662;23.352;2024-01-15T07:15:24;88.97;;;41.17;;
41077;SDS011;26823;42.662;23.352;2024-01-15T07:17:49;91.97;;;42.00;;
41077;SDS011;26823;42.662;23.352;2024-01-15T07:20:15;88.75;;;40.28;;
41077;SDS011;26823;42.662;23.352;2024-01-15T07:22:40;92.65;;;43.78;;
41077;SDS011;26823;42.662;23.352;2024-01-15T07:25:06;95.80;;;43.08;;
41077;SDS011;26823;42.662;23.352;2024-01-15T07:27:32;83.78;;;41.40;;
41077;SDS011;26823;42.662;23.352;2024-01-15T07:29:57;95.32;;;44.15;;
41077;SDS011;26823;42.662;23.352;2024-01-15T07:32:23;101.13;;;45.42;;
41077;SDS011;26823;42.662;23.352;2024-01-15T07:34:49;83.82;;;42.42;;
41077;SDS011;26823;42.662;23.352;2024-01-15T07:37:14;83.20;;;43.38;;
41077;SDS011;26823;42.662;23.352;2024-01-15T07:39:40;97.22;;;44.83;;
41077;SDS011;26823;42.662;23.352;2024-01-15T07:42:05;83.13;;;42.08;;
41077;SDS011;26823;42.662;23.352;2024-01-15T07:44:31;82.35;;;40.50;;
41077;SDS011;26823;42.662;23.352;2024-01-15T07:46:56;83.35;;;38.83;;
41077;SDS011;26823;42.662;23.352;2024-01-15T07:49:22;75.10;;;35.80;;
41077;SDS011;26823;42.662;23.352;2024-01-15T07:51:48;67.57;;;31.90;;
41077;SDS011;26823;42.662;23.352;2024-01-15T07:54:14;69.00;;;32.47;;
41077;SDS011;26823;42.662;23.352;2024-01-15T07:56:56;61.70;;;30.48;;
41077;SDS011;26823;42.662;23.352;2024-01-15T07:59:26;64.78;;;33.95;;
41077;SDS011;26823;42.662;23.352;2024-01-15T08:01:52;70.97;;;32.35;;
41077;SDS011;26823;42.662;23.352;2024-01-15T08:04:18;56.92;;;30.65;;
41077;SDS011;26823;42.662;23.352;2024-01-15T08:06:44;58.25;;;31.77;;
41077;SDS011;26823;42.662;23.352;2024-01-15T08:09:10;60.55;;;31.45;;
41077;SDS011;26823;42.662;23.352;2024-01-15T08:11:36;55.40;;;29.92;;
41077;SDS011;26823;42.662;23.352;2024-01-15T08:14:04;54.50;;;29.42;;
41077;SDS011;26823;42.662;23.352;2024-01-15T08:16:29;61.28;;;29.63;;
41077;SDS011;26823;42.662;23.352;2024-01-15T08:18:54;58.72;;;27.70;;
41077;SDS011;26823;42.662;23.352;2024-01-15T08:21:20;60.25;;;29.45;;
41077;SDS011;26823;42.662;23.352;2024-01-15T08:23:45;58.65;;;30.08;;
41077;SDS011;26823;42.662;23.352;2024-01-15T08:26:11;54.85;;;29.55;;
41077;SDS011;26823;42.662;23.352;2024-01-15T08:28:36;55.70;;;28.92;;
41077;SDS011;26823;42.662;23.352;2024-01-15T08:31:02;55.63;;;27.60;;
41077;SDS011;26823;42.662;23.352;2024-01-15T08:33:28;55.72;;;28.17;;
41077;SDS011;26823;42.662;23.352;2024-01-15T08:35:53;57.10;;;29.58;;
41077;SDS011;26823;42.662;23.352;2024-01-15T08:38:19;61.22;;;29.95;;
41077;SDS011;26823;42.662;23.352;2024-01-15T08:40:44;48.67;;;28.10;;
41077;SDS011;26823;42.662;23.352;2024-01-15T08:43:10;53.40;;;28.42;;
41077;SDS011;26823;42.662;23.352;2024-01-15T08:45:35;50.40;;;28.23;;
41077;SDS011;26823;42.662;23.352;2024-01-15T08:48:01;48.28;;;27.90;;
41077;SDS011;26823;42.662;23.352;2024-01-15T08:50:27;50.30;;;30.35;;
41077;SDS011;26823;42.662;23.352;2024-01-15T08:52:52;54.85;;;31.08;;
41077;SDS011;26823;42.662;23.352;2024-01-15T08:55:18;60.45;;;29.85;;
41077;SDS011;26823;42.662;23.352;2024-01-15T08:57:43;71.28;;;30.95;;
41077;SDS011;26823;42.662;23.352;2024-01-15T09:00:09;57.58;;;31.27;;
41077;SDS011;26823;42.662;23.352;2024-01-15T09:02:35;52.10;;;29.40;;
41077;SDS011;26823;42.662;23.352;2024-01-15T09:05:01;51.65;;;29.40;;
41077;SDS011;26823;42.662;23.352;2024-01-15T09:07:27;47.05;;;28.88;;
41077;SDS011;26823;42.662;23.352;2024-01-15T09:09:53;53.47;;;28.88;;
41077;SDS011;26823;42.662;23.352;2024-01-15T09:12:18;48.10;;;25.40;;
41077;SDS011;26823;42.662;23.352;2024-01-15T09:14:46;43.15;;;25.95;;
41077;SDS011;26823;42.662;23.352;2024-01-15T09:17:12;46.05;;;24.20;;
41077;SDS011;26823;42.662;23.352;2024-01-15T09:19:37;49.05;;;25.67;;
41077;SDS011;26823;42.662;23.352;2024-01-15T09:22:04;54.75;;;28.52;;
41077;SDS011;26823;42.662;23.352;2024-01-15T09:24:30;50.55;;;28.98;;
41077;SDS011;26823;42.662;23.352;2024-01-15T09:26:55;51.83;;;30.15;;
41077;SDS011;26823;42.662;23.352;2024-01-15T09:29:21;56.40;;;30.77;;
41077;SDS011;26823;42.662;23.352;2024-01-15T09:31:48;56.83;;;30.13;;
41077;SDS011;26823;42.662;23.352;2024-01-15T09:34:15;60.00;;;31.05;;
41077;SDS011;26823;42.662;23.352;2024-01-15T09:36:41;54.50;;;30.05;;
41077;SDS011;26823;42.662;23.352;2024-01-15T09:39:07;56.95;;;29.92;;
41077;SDS011;26823;42.662;23.352;2024-01-15T09:41:39;60.25;;;33.03;;
41077;SDS011;26823;42.662;23.352;2024-01-15T09:44:04;55.85;;;30.35;;
41077;SDS011;26823;42.662;23.352;2024-01-15T09:46:31;61.10;;;34.05;;
41077;SDS011;26823;42.662;23.352;2024-01-15T09:48:57;59.58;;;34.35;;
41077;SDS011;26823;42.662;23.352;2024-01-15T09:51:24;58.53;;;34.53;;
41077;SDS011;26823;42.662;23.352;2024-01-15T09:53:52;57.08;;;30.83;;
41077;SDS011;26823;42.662;23.352;2024-01-15T09:56:20;56.78;;;29.60;;
41077;SDS011;26823;42.662;23.352;2024-01-15T09:58:46;64.38;;;31.92;;
41077;SDS011;26823;42.662;23.352;2024-01-15T10:01:12;60.25;;;32.85;;
41077;SDS011;26823;42.662;23.352;2024-01-15T10:03:40;65.00;;;33.53;;
41077;SDS011;26823;42.662;23.352;2024-01-15T10:06:06;54.03;;;30.40;;
41077;SDS011;26823;42.662;23.352;2024-01-15T10:08:34;51.15;;;29.42;;
41077;SDS011;26823;42.662;23.352;2024-01-15T10:11:02;51.58;;;29.42;;
41077;SDS011;26823;42.662;23.352;2024-01-15T10:13:31;59.92;;;28.48;;
41077;SDS011;26823;42.662;23.352;2024-01-15T10:15:58;55.47;;;29.15;;
41077;SDS011;26823;42.662;23.352;2024-01-15T10:18:28;54.78;;;27.38;;
41077;SDS011;26823;42.662;23.352;2024-01-15T10:20:53;55.05;;;27.67;;
41077;SDS011;26823;42.662;23.352;2024-01-15T10:23:19;49.53;;;27.70;;
41077;SDS011;26823;42.662;23.352;2024-01-15T10:25:44;54.40;;;26.95;;
41077;SDS011;26823;42.662;23.352;2024-01-15T10:28:10;55.13;;;28.35;;
41077;SDS011;26823;42.662;23.352;2024-01-15T10:30:35;57.13;;;28.58;;
41077;SDS011;26823;42.662;23.352;2024-01-15T10:33:01;56.10;;;27.73;;
41077;SDS011;26823;42.662;23.352;2024-01-15T10:35:35;58.80;;;27.88;;
41077;SDS011;26823;42.662;23.352;2024-01-15T10:38:01;59.30;;;27.17;;
41077;SDS011;26823;42.662;23.352;2024-01-15T10:40:28;54.45;;;26.92;;
41077;SDS011;26823;42.662;23.352;2024-01-15T10:42:53;46.58;;;25.05;;
41077;SDS011;26823;42.662;23.352;2024-01-15T10:45:19;48.67;;;25.33;;
41077;SDS011;26823;42.662;23.352;2024-01-15T10:47:45;49.70;;;25.33;;
41077;SDS011;26823;42.662;23.352;2024-01-15T10:50:11;45.97;;;24.17;;
41077;SDS011;26823;42.662;23.352;2024-01-15T10:52:37;46.47;;;25.30;;
41077;SDS011;26823;42.662;23.352;2024-01-15T10:55:05;54.63;;;27.50;;
41077;SDS011;26823;42.662;23.352;2024-01-15T10:57:34;54.72;;;29.52;;
41077;SDS011;26823;42.662;23.352;2024-01-15T11:00:00;61.47;;;34.78;;
41077;SDS011;26823;42.662;23.352;2024-01-15T11:02:28;69.85;;;36.42;;
41077;SDS011;26823;42.662;23.352;2024-01-15T11:04:54;64.35;;;34.92;;
41077;SDS011;26823;42.662;23.352;2024-01-15T11:07:21;63.50;;;35.30;;
41077;SDS011;26823;42.662;23.352;2024-01-15T11:09:49;71.28;;;37.63;;
41077;SDS011;26823;42.662;23.352;2024-01-15T11:12:15;65.63;;;34.55;;
41077;SDS011;26823;42.662;23.352;2024-01-15T11:14:45;64.55;;;34.42;;
41077;SDS011;26823;42.662;23.352;2024-01-15T11:17:12;70.68;;;35.85;;
41077;SDS011;26823;42.662;23.352;2024-01-15T11:22:09;67.00;;;35.08;;
41077;SDS011;26823;42.662;23.352;2024-01-15T11:24:55;50.60;;;31.35;;
41077;SDS011;26823;42.662;23.352;2024-01-15T11:27:49;55.08;;;31.98;;
41077;SDS011;26823;42.662;23.352;2024-01-15T11:30:16;59.35;;;31.08;;
41077;SDS011;26823;42.662;23.352;2024-01-15T11:32:45;55.03;;;31.27;;
41077;SDS011;26823;42.662;23.352;2024-01-15T11:35:12;53.75;;;29.33;;
41077;SDS011;26823;42.662;23.352;2024-01-15T11:40:19;52.30;;;29.42;;
41077;SDS011;26823;42.662;23.352;2024-01-15T11:42:45;42.13;;;23.95;;
41077;SDS011;26823;42.662;23.352;2024-01-15T11:45:11;42.15;;;24.33;;
41077;SDS011;26823;42.662;23.352;2024-01-15T11:50:02;41.53;;;22.67;;
41077;SDS011;26823;42.662;23.352;2024-01-15T11:52:38;42.53;;;24.15;;
41077;SDS011;26823;42.662;23.352;2024-01-15T12:00:09;42.30;;;24.70;;
41077;SDS011;26823;42.662;23.352;2024-01-15T12:02:36;49.00;;;24.80;;
41077;SDS011;26823;42.662;23.352;2024-01-15T12:05:02;47.35;;;24.42;;
41077;SDS011;26823;42.662;23.352;2024-01-15T12:07:28;51.67;;;25.08;;
41077;SDS011;26823;42.662;23.352;2024-01-15T12:09:54;40.72;;;23.52;;
41077;SDS011;26823;42.662;23.352;2024-01-15T12:12:32;41.85;;;21.90;;
41077;SDS011;26823;42.662;23.352;2024-01-15T12:15:09;41.70;;;22.33;;
41077;SDS011;26823;42.662;23.352;2024-01-15T12:17:35;40.42;;;21.48;;
41077;SDS011;26823;42.662;23.352;2024-01-15T12:20:02;36.20;;;21.30;;
41077;SDS011;26823;42.662;23.352;2024-01-15T12:22:29;43.20;;;20.33;;
41077;SDS011;26823;42.662;23.352;2024-01-15T12:24:55;40.15;;;22.23;;
41077;SDS011;26823;42.662;23.352;2024-01-15T12:27:20;38.88;;;21.13;;
41077;SDS011;26823;42.662;23.352;2024-01-15T12:29:46;39.83;;;21.40;;
41077;SDS011;26823;42.662;23.352;2024-01-15T12:32:12;39.33;;;21.60;;
41077;SDS011;26823;42.662;23.352;2024-01-15T12:34:37;34.13;;;21.35;;
41077;SDS011;26823;42.662;23.352;2024-01-15T12:37:03;38.83;;;21.30;;
41077;SDS011;26823;42.662;23.352;2024-01-15T12:39:29;41.85;;;20.45;;
41077;SDS011;26823;42.662;23.352;2024-01-15T12:41:54;33.20;;;19.63;;
41077;SDS011;26823;42.662;23.352;2024-01-15T12:44:20;40.90;;;19.95;;
41077;SDS011;26823;42.662;23.352;2024-01-15T12:46:46;35.50;;;19.92;;
41077;SDS011;26823;42.662;23.352;2024-01-15T12:49:12;31.98;;;19.38;;
41077;SDS011;26823;42.662;23.352;2024-01-15T12:51:38;29.77;;;18.40;;
41077;SDS011;26823;42.662;23.352;2024-01-15T12:54:04;34.35;;;20.00;;
41077;SDS011;26823;42.662;23.352;2024-01-15T12:56:29;36.08;;;20.17;;
41077;SDS011;26823;42.662;23.352;2024-01-15T12:58:55;32.90;;;18.77;;
41077;SDS011;26823;42.662;23.352;2024-01-15T13:01:21;40.30;;;20.58;;
41077;SDS011;26823;42.662;23.352;2024-01-15T13:03:46;33.67;;;19.52;;
41077;SDS011;26823;42.662;23.352;2024-01-15T13:06:12;35.20;;;19.48;;
41077;SDS011;26823;42.662;23.352;2024-01-15T13:08:38;33.58;;;20.23;;
41077;SDS011;26823;42.662;23.352;2024-01-15T13:11:03;36.30;;;19.63;;
41077;SDS011;26823;42.662;23.352;2024-01-15T13:13:29;34.65;;;18.98;;
41077;SDS011;26823;42.662;23.352;2024-01-15T13:15:55;29.85;;;18.83;;
41077;SDS011;26823;42.662;23.352;2024-01-15T13:18:21;32.55;;;19.05;;
41077;SDS011;26823;42.662;23.352;2024-01-15T13:20:46;33.60;;;18.70;;
41077;SDS011;26823;42.662;23.352;2024-01-15T13:23:12;34.70;;;19.10;;
41077;SDS011;26823;42.662;23.352;2024-01-15T13:25:37;38.88;;;20.30;;
41077;SDS011;26823;42.662;23.352;2024-01-15T13:28:06;45.45;;;21.00;;
41077;SDS011;26823;42.662;23.352;2024-01-15T13:30:33;36.97;;;19.77;;
41077;SDS011;26823;42.662;23.352;2024-01-15T13:32:58;33.10;;;19.83;;
41077;SDS011;26823;42.662;23.352;2024-01-15T13:35:29;34.60;;;18.98;;
41077;SDS011;26823;42.662;23.352;2024-01-15T13:37:54;34.85;;;19.08;;
41077;SDS011;26823;42.662;23.352;2024-01-15T13:40:19;45.60;;;20.45;;
41077;SDS011;26823;42.662;23.352;2024-01-15T13:42:45;37.08;;;19.77;;
41077;SDS011;26823;42.662;23.352;2024-01-15T13:45:11;37.35;;;19.05;;
41077;SDS011;26823;42.662;23.352;2024-01-15T13:47:39;36.00;;;18.98;;
41077;SDS011;26823;42.662;23.352;2024-01-15T13:50:06;36.28;;;19.55;;
41077;SDS011;26823;42.662;23.352;2024-01-15T13:52:38;32.55;;;18.83;;
41077;SDS011;26823;42.662;23.352;2024-01-15T13:55:04;59.38;;;23.42;;
41077;SDS011;26823;42.662;23.352;2024-01-15T13:57:29;36.05;;;19.60;;
41077;SDS011;26823;42.662;23.352;2024-01-15T13:59:55;37.10;;;19.17;;
41077;SDS011;26823;42.662;23.352;2024-01-15T14:02:20;38.22;;;20.00;;
41077;SDS011;26823;42.662;23.352;2024-01-15T14:04:46;33.40;;;19.27;;
41077;SDS011;26823;42.662;23.352;2024-01-15T14:07:12;38.85;;;20.23;;
41077;SDS011;26823;42.662;23.352;2024-01-15T14:09:37;37.10;;;19.98;;
41077;SDS011;26823;42.662;23.352;2024-01-15T14:12:03;34.92;;;20.60;;
41077;SDS011;26823;42.662;23.352;2024-01-15T14:14:29;35.70;;;20.27;;